Time,TemperatureF,DewpointF,PressureIn,WindDirection,WindDirectionDegrees,WindSpeedMPH,WindSpeedGustMPH,Humidity,HourlyPrecipIn,Conditions,Clouds,dailyrainin,SoftwareType,DateUTC
2013-10-09 00:02:00,53.7,48.0,30.15,SE,135,4.0,-999.0,80,-99.99,,,0.00,weatherlink.com 1.10,2013-10-09 05:02:00,
2013-10-09 00:17:00,54.4,48.0,30.16,SE,134,0.0,-999.0,78,-99.99,,,0.00,weatherlink.com 1.10,2013-10-09 05:17:00,
2013-10-09 00:32:00,54.0,47.0,30.15,SE,134,0.0,-999.0,78,-99.99,,,0.00,weatherlink.com 1.10,2013-10-09 05:32:00,
2013-10-09 00:47:00,53.5,47.0,30.16,SE,134,0.0,-999.0,79,-99.99,,,0.00,weatherlink.com 1.10,2013-10-09 05:47:00,
2013-10-09 01:02:00,53.1,47.0,30.16,SE,134,0.0,-999.0,80,-99.99,,,0.00,weatherlink.com 1.10,2013-10-09 06:02:00,
2013-10-09 01:17:00,52.5,47.0,30.16,SE,134,0.0,-999.0,80,-99.99,,,0.00,weatherlink.com 1.10,2013-10-09 06:17:00,
2013-10-09 01:32:00,51.5,46.0,30.16,SE,134,0.0,-999.0,82,-99.99,,,0.00,weatherlink.com 1.10,2013-10-09 06:32:00,
2013-10-09 01:47:00,50.8,46.0,30.16,SE,134,0.0,-999.0,84,-99.99,,,0.00,weatherlink.com 1.10,2013-10-09 06:47:00,
2013-10-09 02:02:00,50.5,46.0,30.16,SE,134,0.0,-999.0,85,-99.99,,,0.00,weatherlink.com 1.10,2013-10-09 07:02:00,
2013-10-09 02:17:00,50.2,46.0,30.16,SE,134,0.0,-999.0,85,-99.99,,,0.00,weatherlink.com 1.10,2013-10-09 07:17:00,
2013-10-09 02:32:00,49.8,46.0,30.15,SE,134,0.0,-999.0,85,-99.99,,,0.00,weatherlink.com 1.10,2013-10-09 07:32:00,
2013-10-09 02:47:00,49.5,45.0,30.15,SE,134,0.0,-999.0,85,-99.99,,,0.00,weatherlink.com 1.10,2013-10-09 07:47:00,
2013-10-09 03:02:00,49.5,45.0,30.15,SE,134,0.0,-999.0,85,-99.99,,,0.00,weatherlink.com 1.10,2013-10-09 08:02:00,
2013-10-09 03:17:00,49.4,45.0,30.16,SE,134,0.0,-999.0,85,-99.99,,,0.00,weatherlink.com 1.10,2013-10-09 08:17:00,
2013-10-09 03:32:00,49.4,45.0,30.15,SE,134,0.0,-999.0,84,-99.99,,,0.00,weatherlink.com 1.10,2013-10-09 08:32:00,
2013-10-09 03:47:00,49.0,45.0,30.15,SE,134,0.0,-999.0,85,-99.99,,,0.00,weatherlink.com 1.10,2013-10-09 08:47:00,
2013-10-09 04:03:00,48.5,44.0,30.15,SE,134,0.0,-999.0,85,-99.99,,,0.00,weatherlink.com 1.10,2013-10-09 09:03:00,
2013-10-09 04:18:00,48.3,44.0,30.16,SE,134,0.0,-999.0,85,-99.99,,,0.00,weatherlink.com 1.10,2013-10-09 09:18:00,
2013-10-09 04:33:00,48.5,44.0,30.17,SE,134,0.0,-999.0,85,-99.99,,,0.00,weatherlink.com 1.10,2013-10-09 09:33:00,
2013-10-09 04:48:00,48.8,44.0,30.17,SE,134,0.0,-999.0,84,-99.99,,,0.00,weatherlink.com 1.10,2013-10-09 09:48:00,
2013-10-09 05:03:00,48.8,44.0,30.17,SE,134,0.0,-999.0,84,-99.99,,,0.00,weatherlink.com 1.10,2013-10-09 10:03:00,
2013-10-09 05:18:00,48.7,44.0,30.17,SE,134,0.0,-999.0,84,-99.99,,,0.00,weatherlink.com 1.10,2013-10-09 10:18:00,
2013-10-09 05:33:00,48.6,44.0,30.19,SE,134,0.0,-999.0,84,-99.99,,,0.00,weatherlink.com 1.10,2013-10-09 10:33:00,
2013-10-09 05:48:00,48.4,44.0,30.19,SE,134,0.0,-999.0,84,-99.99,,,0.00,weatherlink.com 1.10,2013-10-09 10:48:00,
2013-10-09 06:03:00,48.0,44.0,30.19,SE,134,0.0,-999.0,85,-99.99,,,0.00,weatherlink.com 1.10,2013-10-09 11:03:00,
2013-10-09 06:18:00,47.8,44.0,30.19,SE,134,0.0,-999.0,85,-99.99,,,0.00,weatherlink.com 1.10,2013-10-09 11:18:00,
2013-10-09 06:33:00,47.7,44.0,30.19,SE,134,0.0,-999.0,86,-99.99,,,0.00,weatherlink.com 1.10,2013-10-09 11:33:00,
2013-10-09 06:48:00,47.8,44.0,30.20,SE,134,0.0,-999.0,86,-99.99,,,0.00,weatherlink.com 1.10,2013-10-09 11:48:00,
2013-10-09 07:03:00,48.3,44.0,30.19,SE,134,0.0,-999.0,85,-99.99,,,0.00,weatherlink.com 1.10,2013-10-09 12:03:00,
2013-10-09 07:18:00,48.7,44.0,30.20,SE,132,0.0,-999.0,84,-99.99,,,0.00,weatherlink.com 1.10,2013-10-09 12:18:00,
2013-10-09 07:33:00,49.0,44.0,30.20,East,84,0.0,-999.0,83,-99.99,,,0.00,weatherlink.com 1.10,2013-10-09 12:33:00,
2013-10-09 07:48:00,50.2,45.0,30.20,East,87,0.0,-999.0,82,-99.99,,,0.00,weatherlink.com 1.10,2013-10-09 12:48:00,
2013-10-09 08:03:00,51.6,45.0,30.20,East,88,0.0,-999.0,79,-99.99,,,0.00,weatherlink.com 1.10,2013-10-09 13:03:00,
2013-10-09 08:18:00,53.2,47.0,30.20,East,98,0.0,-999.0,78,-99.99,,,0.00,weatherlink.com 1.10,2013-10-09 13:18:00,
2013-10-09 08:33:00,54.1,47.0,30.21,ESE,120,0.0,-999.0,77,-99.99,,,0.00,weatherlink.com 1.10,2013-10-09 13:33:00,
2013-10-09 08:48:00,54.9,48.0,30.21,SE,128,3.0,-999.0,77,-99.99,,,0.00,weatherlink.com 1.10,2013-10-09 13:48:00,
2013-10-09 09:03:00,55.9,49.0,30.21,SE,144,5.0,-999.0,77,-99.99,,,0.00,weatherlink.com 1.10,2013-10-09 14:03:00,
2013-10-09 09:18:00,57.5,50.0,30.21,SE,126,0.0,-999.0,75,-99.99,,,0.00,weatherlink.com 1.10,2013-10-09 14:18:00,
2013-10-09 09:33:00,59.0,50.0,30.21,SE,127,0.0,-999.0,71,-99.99,,,0.00,weatherlink.com 1.10,2013-10-09 14:33:00,
2013-10-09 09:48:00,60.4,50.0,30.21,SE,130,4.0,-999.0,68,-99.99,,,0.00,weatherlink.com 1.10,2013-10-09 14:48:00,
2013-10-09 10:04:00,61.8,50.0,30.20,SE,128,0.0,-999.0,65,-99.99,,,0.00,weatherlink.com 1.10,2013-10-09 15:04:00,
2013-10-09 10:19:00,63.0,50.0,30.20,ESE,119,0.0,-999.0,63,-99.99,,,0.00,weatherlink.com 1.10,2013-10-09 15:19:00,
2013-10-09 10:34:00,64.3,49.0,30.20,SE,136,5.0,-999.0,59,-99.99,,,0.00,weatherlink.com 1.10,2013-10-09 15:34:00,
2013-10-09 10:49:00,65.6,49.0,30.20,ESE,123,0.0,-999.0,55,-99.99,,,0.00,weatherlink.com 1.10,2013-10-09 15:49:00,
2013-10-09 11:04:00,66.4,48.0,30.20,ESE,119,0.0,-999.0,51,-99.99,,,0.00,weatherlink.com 1.10,2013-10-09 16:04:00,
2013-10-09 11:19:00,66.9,49.0,30.19,SE,128,6.0,-999.0,52,-99.99,,,0.00,weatherlink.com 1.10,2013-10-09 16:19:00,
2013-10-09 11:34:00,67.7,49.0,30.19,ESE,107,0.0,-999.0,51,-99.99,,,0.00,weatherlink.com 1.10,2013-10-09 16:34:00,
2013-10-09 11:49:00,68.1,49.0,30.18,ENE,78,0.0,-999.0,50,-99.99,,,0.00,weatherlink.com 1.10,2013-10-09 16:49:00,
2013-10-09 12:04:00,68.6,48.0,30.18,SE,129,5.0,-999.0,48,-99.99,,,0.00,weatherlink.com 1.10,2013-10-09 17:04:00,
2013-10-09 12:19:00,69.3,48.0,30.17,East,88,0.0,-999.0,47,-99.99,,,0.00,weatherlink.com 1.10,2013-10-09 17:19:00,
2013-10-09 12:34:00,69.7,49.0,30.16,ENE,67,0.0,-999.0,48,-99.99,,,0.00,weatherlink.com 1.10,2013-10-09 17:34:00,
2013-10-09 12:49:00,70.0,48.0,30.16,SE,134,0.0,-999.0,46,-99.99,,,0.00,weatherlink.com 1.10,2013-10-09 17:49:00,
2013-10-09 13:04:00,71.1,48.0,30.15,SE,126,1.0,-999.0,44,-99.99,,,0.00,weatherlink.com 1.10,2013-10-09 18:04:00,
2013-10-09 13:19:00,70.4,48.0,30.14,SE,126,0.0,-999.0,45,-99.99,,,0.00,weatherlink.com 1.10,2013-10-09 18:19:00,
2013-10-09 13:34:00,70.9,47.0,30.14,ESE,113,3.0,-999.0,43,-99.99,,,0.00,weatherlink.com 1.10,2013-10-09 18:34:00,
2013-10-09 13:49:00,71.3,48.0,30.14,SSE,148,3.0,-999.0,44,-99.99,,,0.00,weatherlink.com 1.10,2013-10-09 18:49:00,
2013-10-09 14:05:00,72.0,48.0,30.13,East,80,0.0,-999.0,43,-99.99,,,0.00,weatherlink.com 1.10,2013-10-09 19:05:00,
2013-10-09 14:19:00,71.9,49.0,30.12,SE,143,3.0,-999.0,44,-99.99,,,0.00,weatherlink.com 1.10,2013-10-09 19:19:00,
2013-10-09 14:34:00,72.2,48.0,30.12,ESE,123,7.0,-999.0,43,-99.99,,,0.00,weatherlink.com 1.10,2013-10-09 19:34:00,
2013-10-09 17:06:00,73.5,48.0,30.10,SE,129,0.0,-999.0,41,-99.99,,,0.00,weatherlink.com 1.10,2013-10-09 22:06:00,
2013-10-09 17:20:00,73.0,48.0,30.10,ESE,117,0.0,-999.0,42,-99.99,,,0.00,weatherlink.com 1.10,2013-10-09 22:20:00,
2013-10-09 17:35:00,72.5,49.0,30.10,ESE,121,0.0,-999.0,44,-99.99,,,0.00,weatherlink.com 1.10,2013-10-09 22:35:00,
2013-10-09 17:50:00,71.6,50.0,30.09,ESE,121,0.0,-999.0,46,-99.99,,,0.00,weatherlink.com 1.10,2013-10-09 22:50:00,
2013-10-09 18:05:00,70.5,49.0,30.09,ESE,121,0.0,-999.0,47,-99.99,,,0.00,weatherlink.com 1.10,2013-10-09 23:05:00,
2013-10-09 18:20:00,69.2,50.0,30.10,ESE,121,0.0,-999.0,50,-99.99,,,0.00,weatherlink.com 1.10,2013-10-09 23:20:00,
2013-10-09 18:35:00,67.6,49.0,30.10,ESE,121,0.0,-999.0,52,-99.99,,,0.00,weatherlink.com 1.10,2013-10-09 23:35:00,
2013-10-09 18:50:00,66.5,49.0,30.10,ESE,121,0.0,-999.0,54,-99.99,,,0.00,weatherlink.com 1.10,2013-10-09 23:50:00,
2013-10-09 19:05:00,65.4,49.0,30.10,ESE,121,0.0,-999.0,56,-99.99,,,0.00,weatherlink.com 1.10,2013-10-10 00:05:00,
2013-10-09 19:20:00,64.2,48.0,30.10,ESE,121,0.0,-999.0,57,-99.99,,,0.00,weatherlink.com 1.10,2013-10-10 00:20:00,
2013-10-09 19:35:00,63.7,48.0,30.10,ESE,121,0.0,-999.0,58,-99.99,,,0.00,weatherlink.com 1.10,2013-10-10 00:35:00,
2013-10-09 19:50:00,63.3,49.0,30.11,ESE,121,0.0,-999.0,60,-99.99,,,0.00,weatherlink.com 1.10,2013-10-10 00:50:00,
2013-10-09 20:05:00,62.6,49.0,30.11,ESE,121,0.0,-999.0,61,-99.99,,,0.00,weatherlink.com 1.10,2013-10-10 01:05:00,
2013-10-09 20:20:00,61.5,49.0,30.11,ESE,121,0.0,-999.0,63,-99.99,,,0.00,weatherlink.com 1.10,2013-10-10 01:20:00,
2013-10-09 20:35:00,60.5,49.0,30.10,ESE,121,0.0,-999.0,65,-99.99,,,0.00,weatherlink.com 1.10,2013-10-10 01:35:00,
2013-10-09 20:50:00,60.0,49.0,30.11,ESE,121,0.0,-999.0,66,-99.99,,,0.00,weatherlink.com 1.10,2013-10-10 01:50:00,
2013-10-09 21:05:00,59.4,48.0,30.11,ESE,121,0.0,-999.0,67,-99.99,,,0.00,weatherlink.com 1.10,2013-10-10 02:05:00,
2013-10-09 21:20:00,59.0,48.0,30.11,ESE,121,0.0,-999.0,68,-99.99,,,0.00,weatherlink.com 1.10,2013-10-10 02:20:00,
2013-10-09 21:35:00,58.0,48.0,30.12,ESE,121,0.0,-999.0,70,-99.99,,,0.00,weatherlink.com 1.10,2013-10-10 02:35:00,
2013-10-09 21:50:00,57.1,48.0,30.12,ESE,121,0.0,-999.0,72,-99.99,,,0.00,weatherlink.com 1.10,2013-10-10 02:50:00,
2013-10-09 22:05:00,56.4,48.0,30.11,ESE,121,0.0,-999.0,74,-99.99,,,0.00,weatherlink.com 1.10,2013-10-10 03:05:00,
2013-10-09 22:20:00,55.8,48.0,30.11,ESE,121,0.0,-999.0,75,-99.99,,,0.00,weatherlink.com 1.10,2013-10-10 03:20:00,
2013-10-09 22:35:00,55.4,48.0,30.12,ESE,121,0.0,-999.0,77,-99.99,,,0.00,weatherlink.com 1.10,2013-10-10 03:35:00,
2013-10-09 23:05:00,55.3,48.0,30.11,ESE,121,0.0,-999.0,77,-99.99,,,0.00,weatherlink.com 1.10,2013-10-10 04:05:00,
2013-10-09 23:20:00,55.2,48.0,30.11,ESE,121,0.0,-999.0,77,-99.99,,,0.00,weatherlink.com 1.10,2013-10-10 04:20:00,
2013-10-09 23:35:00,55.1,48.0,30.11,ESE,121,0.0,-999.0,77,-99.99,,,0.00,weatherlink.com 1.10,2013-10-10 04:35:00,
2013-10-09 23:50:00,54.8,48.0,30.11,ESE,121,0.0,-999.0,78,-99.99,,,0.00,weatherlink.com 1.10,2013-10-10 04:50:00,